createdAt,value
2023-05-19T00:03:09.200Z,1.90
2023-05-19T00:08:12.107Z,2.20
2023-05-19T00:13:14.912Z,2.20
2023-05-19T00:18:17.498Z,2.00
2023-05-19T00:23:20.128Z,2.00
2023-05-19T00:28:22.815Z,2.40
2023-05-19T00:33:25.572Z,1.80
2023-05-19T00:38:28.482Z,2.10
2023-05-19T00:43:31.687Z,2.00
2023-05-19T00:48:34.288Z,1.90
2023-05-19T00:53:36.847Z,2.20
2023-05-19T00:58:39.570Z,2.20
2023-05-19T01:03:43.761Z,1.80
2023-05-19T01:08:46.590Z,1.70
2023-05-19T01:13:49.542Z,1.60
2023-05-19T01:19:19.638Z,1.90
2023-05-19T01:24:57.004Z,1.50
2023-05-19T01:30:22.295Z,1.80
2023-05-19T01:35:26.785Z,1.60
2023-05-19T01:40:30.865Z,1.60
2023-05-19T01:45:34.297Z,1.60
2023-05-19T01:50:36.913Z,1.50
2023-05-19T01:55:46.304Z,1.50
2023-05-19T02:01:04.111Z,1.70
2023-05-19T02:06:18.271Z,2.00
2023-05-19T02:12:00.316Z,3.40
2023-05-19T02:17:04.588Z,2.40
2023-05-19T02:22:07.250Z,1.90
2023-05-19T02:27:09.847Z,1.80
2023-05-19T02:32:14.887Z,1.70
2023-05-19T02:37:17.777Z,1.70
2023-05-19T02:42:20.788Z,1.70
2023-05-19T02:47:23.432Z,2.00
2023-05-19T02:52:26.209Z,1.90
2023-05-19T02:57:30.039Z,1.50
2023-05-19T03:02:34.145Z,1.80
2023-05-19T03:07:36.960Z,1.70
2023-05-19T03:12:39.733Z,1.80
2023-05-19T03:17:42.739Z,1.60
2023-05-19T03:22:45.340Z,1.80
2023-05-19T03:27:48.045Z,1.70
2023-05-19T03:32:52.065Z,1.70
2023-05-19T03:37:54.858Z,1.80
2023-05-19T03:42:57.454Z,2.30
2023-05-19T03:48:00.073Z,2.00
2023-05-19T03:53:02.690Z,2.20
2023-05-19T03:58:05.305Z,1.90
2023-05-19T04:03:08.458Z,2.50
2023-05-19T04:08:11.179Z,1.90
2023-05-19T04:13:13.772Z,2.30
2023-05-19T04:18:16.384Z,2.40
2023-05-19T04:23:18.960Z,2.00
2023-05-19T04:28:21.649Z,1.80
2023-05-19T04:33:24.664Z,1.80
2023-05-19T04:38:29.966Z,1.90
2023-05-19T04:43:32.528Z,2.40
2023-05-19T04:48:35.164Z,1.80
2023-05-19T04:53:40.179Z,2.10
2023-05-19T04:58:44.826Z,1.60
2023-05-19T05:03:47.626Z,1.80
2023-05-19T05:08:52.183Z,1.70
2023-05-19T05:13:58.030Z,1.50
2023-05-19T05:19:01.647Z,1.60
2023-05-19T05:24:04.728Z,1.90
2023-05-19T05:29:09.262Z,1.50
2023-05-19T05:34:11.904Z,2.30
2023-05-19T05:39:14.518Z,1.60
2023-05-19T05:44:17.198Z,1.70
2023-05-19T05:49:20.394Z,1.70
2023-05-19T05:54:24.802Z,2.00
2023-05-19T05:59:27.550Z,1.80
2023-05-19T06:04:31.202Z,1.90
2023-05-19T06:09:34.099Z,1.70
2023-05-19T06:14:36.760Z,1.70
2023-05-19T06:19:39.384Z,1.60
2023-05-19T06:24:42.038Z,1.80
2023-05-19T06:29:44.617Z,1.70
2023-05-19T06:34:53.956Z,1.70
2023-05-19T06:39:56.540Z,1.90
2023-05-19T06:44:59.259Z,1.90
2023-05-19T06:50:01.939Z,1.70
2023-05-19T06:55:07.728Z,2.00
2023-05-19T07:00:13.860Z,2.00
2023-05-19T07:05:17.947Z,2.00
2023-05-19T07:10:21.925Z,2.20
2023-05-19T07:15:24.513Z,2.10
2023-05-19T07:20:27.154Z,2.00
2023-05-19T07:25:30.642Z,2.10
2023-05-19T07:30:33.610Z,1.90
2023-05-19T07:35:36.571Z,2.00
2023-05-19T07:40:39.194Z,1.50
2023-05-19T07:45:41.822Z,1.80
2023-05-19T07:50:44.396Z,1.70
2023-05-19T07:55:47.097Z,1.50
2023-05-19T08:00:49.734Z,1.50
2023-05-19T08:05:52.529Z,1.40
2023-05-19T08:10:55.459Z,1.50
2023-05-19T08:15:59.907Z,1.50
2023-05-19T08:21:02.702Z,1.60
2023-05-19T08:26:05.740Z,1.40
2023-05-19T08:31:08.399Z,1.40
2023-05-19T08:36:11.705Z,1.20
2023-05-19T08:41:14.319Z,1.40
2023-05-19T08:46:17.122Z,1.10
2023-05-19T08:51:39.053Z,1.30
2023-05-19T08:56:45.682Z,1.40
2023-05-19T09:01:49.891Z,1.20
2023-05-19T09:06:52.540Z,1.20
2023-05-19T09:11:55.185Z,1.30
2023-05-19T09:16:57.876Z,1.10
2023-05-19T09:22:03.361Z,1.00
2023-05-19T09:27:06.187Z,1.00
2023-05-19T09:32:08.894Z,1.00
2023-05-19T09:37:13.078Z,1.10
2023-05-19T09:42:16.714Z,1.00
2023-05-19T09:47:19.275Z,0.90
2023-05-19T09:52:22.192Z,0.90
2023-05-19T09:57:28.422Z,1.00
2023-05-19T10:02:32.196Z,1.20
2023-05-19T10:07:35.153Z,1.10
2023-05-19T10:12:39.278Z,1.00
2023-05-19T10:17:43.715Z,1.20
2023-05-19T10:22:46.768Z,1.20
2023-05-19T10:27:58.390Z,1.20
2023-05-19T10:33:03.756Z,1.00
2023-05-19T10:38:42.737Z,1.10
2023-05-19T10:44:34.394Z,1.10
2023-05-19T10:49:37.337Z,1.20
2023-05-19T10:54:46.899Z,1.20
2023-05-19T10:59:49.935Z,1.20
2023-05-19T11:04:53.450Z,1.30
2023-05-19T11:09:56.047Z,1.20
2023-05-19T11:14:59.372Z,1.70
2023-05-19T11:20:01.953Z,1.20
2023-05-19T11:25:05.228Z,1.50
2023-05-19T11:30:09.319Z,1.30
2023-05-19T11:35:12.462Z,1.40
2023-05-19T11:40:15.724Z,1.20
2023-05-19T11:45:27.323Z,1.40
2023-05-19T11:50:31.927Z,1.40
2023-05-19T11:55:34.576Z,1.30
2023-05-19T12:00:40.740Z,1.20
2023-05-19T12:05:46.858Z,1.20
2023-05-19T12:10:53.203Z,1.40
2023-05-19T12:22:56.538Z,1.30
2023-05-19T12:28:00.731Z,1.40
2023-05-19T12:33:03.600Z,1.30
2023-05-19T12:38:06.767Z,1.50
2023-05-19T12:43:19.081Z,1.40
2023-05-19T12:48:22.887Z,1.10
2023-05-19T12:53:28.103Z,1.50
2023-05-19T12:58:34.268Z,1.30
2023-05-19T13:03:43.869Z,1.40
2023-05-19T13:08:47.321Z,1.30
2023-05-19T13:13:50.049Z,1.40
2023-05-19T13:18:53.550Z,1.30
2023-05-19T13:23:56.291Z,1.40
2023-05-19T13:28:59.029Z,1.40
2023-05-19T13:34:02.634Z,1.30
2023-05-19T13:39:05.460Z,1.40
2023-05-19T13:44:08.056Z,1.20
2023-05-19T13:49:10.618Z,1.20
2023-05-19T13:54:13.208Z,1.20
2023-05-19T13:59:17.290Z,1.30
2023-05-19T14:04:20.067Z,1.30
2023-05-19T14:09:23.121Z,1.90
2023-05-19T14:14:25.918Z,1.30
2023-05-19T14:19:30.282Z,1.40
2023-05-19T14:24:33.050Z,1.70
2023-05-19T14:29:35.799Z,1.30
2023-05-19T14:34:38.584Z,1.40
2023-05-19T14:39:41.268Z,1.10
2023-05-19T14:44:44.006Z,1.40
2023-05-19T14:49:46.829Z,1.20
2023-05-19T14:54:49.485Z,1.30
2023-05-19T14:59:52.087Z,1.10
2023-05-19T15:04:54.651Z,1.20
2023-05-19T15:09:57.273Z,1.20
2023-05-19T15:14:59.893Z,1.20
2023-05-19T15:20:02.655Z,1.10
2023-05-19T15:25:05.951Z,1.50
2023-05-19T15:30:08.811Z,1.20
2023-05-19T15:35:11.475Z,1.30
2023-05-19T15:40:14.192Z,1.20
2023-05-19T15:45:16.934Z,1.50
2023-05-19T15:50:19.601Z,1.30
2023-05-19T15:55:22.240Z,1.70
2023-05-19T16:00:25.057Z,1.40
2023-05-19T16:05:27.833Z,1.70
2023-05-19T16:10:30.557Z,1.40
2023-05-19T16:15:33.288Z,1.30
2023-05-19T16:20:35.996Z,1.50
2023-05-19T16:25:38.731Z,1.20
2023-05-19T16:30:41.415Z,1.50
2023-05-19T16:35:44.042Z,1.70
2023-05-19T16:40:46.617Z,1.80
2023-05-19T16:45:49.423Z,1.80
2023-05-19T16:50:52.448Z,2.00
2023-05-19T16:55:55.356Z,1.50
2023-05-19T17:00:58.096Z,1.70
2023-05-19T17:06:00.965Z,1.50
2023-05-19T17:11:03.574Z,1.20
2023-05-19T17:16:06.349Z,1.50
2023-05-19T17:21:09.107Z,1.70
2023-05-19T17:26:11.989Z,1.50
2023-05-19T17:31:15.846Z,1.50
2023-05-19T17:36:18.630Z,1.50
2023-05-19T17:41:21.846Z,1.70
2023-05-19T17:46:24.501Z,1.70
2023-05-19T17:51:27.788Z,1.40
2023-05-19T17:56:33.603Z,1.90
2023-05-19T18:01:36.573Z,1.50
2023-05-19T18:06:40.672Z,1.60
2023-05-19T18:11:43.591Z,2.00
2023-05-19T18:16:47.360Z,1.70
2023-05-19T18:21:50.096Z,2.90
2023-05-19T18:26:52.754Z,2.60
2023-05-19T18:31:55.587Z,2.80
2023-05-19T18:36:58.211Z,2.30
2023-05-19T18:42:01.933Z,3.50
2023-05-19T18:47:05.046Z,2.50
2023-05-19T18:52:08.070Z,2.70
2023-05-19T18:57:10.832Z,2.60
2023-05-19T19:02:13.395Z,2.70
2023-05-19T19:07:16.222Z,2.90
2023-05-19T19:12:20.474Z,3.00
2023-05-19T19:17:23.508Z,3.20
2023-05-19T19:22:26.512Z,3.20
2023-05-19T19:27:31.230Z,2.50
2023-05-19T19:32:33.954Z,2.40
2023-05-19T19:37:36.662Z,2.70
2023-05-19T19:42:40.307Z,2.80
2023-05-19T19:47:43.029Z,2.80
2023-05-19T19:52:45.702Z,2.40
2023-05-19T19:57:49.579Z,2.30
2023-05-19T20:03:04.463Z,2.30
2023-05-19T20:08:09.028Z,2.30
2023-05-19T20:13:11.717Z,2.00
2023-05-19T20:18:14.361Z,2.00
2023-05-19T20:23:17.198Z,2.30
2023-05-19T20:28:21.309Z,2.30
2023-05-19T20:33:25.694Z,2.40
2023-05-19T20:38:28.324Z,2.20
2023-05-19T20:43:32.200Z,2.50
2023-05-19T20:48:34.747Z,2.70
2023-05-19T20:53:37.526Z,2.60
2023-05-19T20:58:40.140Z,3.10
2023-05-19T21:03:42.719Z,2.80
2023-05-19T21:08:45.427Z,2.60
2023-05-19T21:13:48.053Z,2.60
2023-05-19T21:18:50.900Z,2.70
2023-05-19T21:23:53.558Z,2.30
2023-05-19T21:28:56.167Z,2.20
2023-05-19T21:33:58.870Z,2.60
2023-05-19T21:39:01.563Z,3.00
2023-05-19T21:44:04.339Z,2.90
2023-05-19T21:49:08.631Z,2.80
2023-05-19T21:54:11.419Z,2.40
2023-05-19T21:59:14.059Z,2.60
2023-05-19T22:04:18.513Z,2.00
2023-05-19T22:09:21.664Z,2.80
2023-05-19T22:14:24.364Z,2.90
2023-05-19T22:19:27.047Z,2.60
2023-05-19T22:24:29.739Z,2.70
2023-05-19T22:29:32.907Z,3.00
2023-05-19T22:34:35.589Z,2.50
2023-05-19T22:39:39.001Z,2.00
2023-05-19T22:44:43.356Z,3.20
2023-05-19T22:49:46.314Z,3.00
2023-05-19T22:54:48.945Z,2.30
2023-05-19T22:59:51.522Z,2.50
2023-05-19T23:04:54.144Z,2.60
2023-05-19T23:09:56.761Z,2.80
2023-05-19T23:14:59.459Z,2.40
2023-05-19T23:20:02.497Z,2.20
2023-05-19T23:25:07.684Z,2.10
2023-05-19T23:30:10.767Z,2.00
2023-05-19T23:35:15.737Z,2.10
2023-05-19T23:40:18.360Z,2.40
2023-05-19T23:45:20.968Z,2.30
2023-05-19T23:50:23.722Z,2.20
2023-05-19T23:55:26.301Z,2.70
